Skip Navigation LinksHome page > Weather > Current weather Skip Navigation Links

Current Weather

Istanbul / Ataturk, Turkey

For information only: do not use for flight planning or navigation.
Latest weather
Observation time Monday, October 18, 2021 10:20 PM +03
Local time Monday, October 18, 2021 10:45 PM +03
Flight conditions Visual Meteorological Conditions
Winds
Wind direction East-Northeast (60°)
Wind speed 10 mph
Visibility 6.2 mi.
Sky condition
Ceiling unlimited
Sky clear
Temperature 59°F
Dewpoint 50°F
Altimeter 30.24 in.Hg
Derived measurements
Relative humidity 72%
Density altitude -139 ft.
Remarks
Ceiling and visibility OK.
No significant changes expected in the next two hours.
METAR LTBA 181920Z 06009KT CAVOK 15/10 Q1024 NOSIG RMK RWY23 05009KT

Settings

Location code

InnerDrive.Weather 4.0.6770.0 Release CLR 4.0.30319.42000
Copyright ©2018 Inner Drive Technology. All rights reserved. Portions Copyright ©1986-2018 David Braverman.

Find weather

Site navigation


Skip Navigation Links

Place info

Page info

PayPal - The safer, easier way to pay online!

Return home.

Copyright ©2021 Inner Drive Technology. Purveyors of fine, hand-crafted computer software. Page printed 2021-10-18T19:45:38 UTC.